Time,TemperatureF,DewpointF,PressureIn,WindDirection,WindDirectionDegrees,WindSpeedMPH,WindSpeedGustMPH,Humidity,HourlyPrecipIn,Conditions,Clouds,dailyrainin,SoftwareType,DateUTC
2013-10-31 00:00:00,31.5,31.6,-100.00,West,269,0.0,0.0,100,0.00,n/a,n/a,-99.99,Henriksen +1-Wire,2013-10-31 04:00:00,
2013-10-31 00:10:00,30.9,30.9,-100.00,West,269,0.0,0.0,100,0.00,n/a,n/a,-99.99,Henriksen +1-Wire,2013-10-31 04:10:00,
2013-10-31 00:20:00,31.0,31.0,-100.00,West,267,0.0,0.0,100,0.00,n/a,n/a,-99.99,Henriksen +1-Wire,2013-10-31 04:20:00,
2013-10-31 00:30:00,30.8,30.8,-100.00,NE,45,0.0,0.0,100,0.00,n/a,n/a,-99.99,Henriksen +1-Wire,2013-10-31 04:30:00,
2013-10-31 00:40:00,30.6,30.6,-100.00,WSW,255,0.0,0.0,100,0.00,n/a,n/a,-99.99,Henriksen +1-Wire,2013-10-31 04:40:00,
2013-10-31 00:50:00,30.5,30.5,-100.00,WSW,253,0.0,0.0,100,0.00,n/a,n/a,-99.99,Henriksen +1-Wire,2013-10-31 04:50:00,
2013-10-31 01:00:00,30.5,30.5,-100.00,WSW,253,0.0,0.0,100,0.00,n/a,n/a,-99.99,Henriksen +1-Wire,2013-10-31 05:00:00,
2013-10-31 01:10:00,30.4,30.4,-100.00,West,268,0.0,0.0,100,0.00,n/a,n/a,-99.99,Henriksen +1-Wire,2013-10-31 05:10:00,
2013-10-31 01:20:00,30.2,30.2,-100.00,West,268,0.0,0.0,100,0.00,n/a,n/a,-99.99,Henriksen +1-Wire,2013-10-31 05:20:00,
2013-10-31 01:30:00,30.3,30.3,-100.00,West,269,0.0,0.0,100,0.00,n/a,n/a,-99.99,Henriksen +1-Wire,2013-10-31 05:30:00,
2013-10-31 01:40:00,30.1,30.1,-100.00,West,268,0.0,0.0,100,0.00,n/a,n/a,-99.99,Henriksen +1-Wire,2013-10-31 05:40:00,
2013-10-31 01:50:00,30.2,30.2,-100.00,West,269,0.0,0.0,100,0.00,n/a,n/a,-99.99,Henriksen +1-Wire,2013-10-31 05:50:00,
2013-10-31 02:00:00,29.9,29.9,-100.00,West,266,0.0,0.0,100,0.00,n/a,n/a,-99.99,Henriksen +1-Wire,2013-10-31 06:00:00,
2013-10-31 02:10:00,29.8,29.8,-100.00,West,268,0.0,0.0,100,0.00,n/a,n/a,-99.99,Henriksen +1-Wire,2013-10-31 06:10:00,
2013-10-31 02:20:00,29.8,29.8,-100.00,West,269,0.0,0.0,100,0.00,n/a,n/a,-99.99,Henriksen +1-Wire,2013-10-31 06:20:00,
2013-10-31 02:30:00,29.6,29.6,-100.00,West,269,0.0,0.0,100,0.00,n/a,n/a,-99.99,Henriksen +1-Wire,2013-10-31 06:30:00,
2013-10-31 02:40:00,29.6,29.6,-100.00,West,269,0.0,0.0,100,0.00,n/a,n/a,-99.99,Henriksen +1-Wire,2013-10-31 06:40:00,
2013-10-31 02:50:00,29.4,29.4,-100.00,West,269,0.0,0.0,100,0.00,n/a,n/a,-99.99,Henriksen +1-Wire,2013-10-31 06:50:00,
2013-10-31 03:00:00,29.6,29.6,-100.00,West,269,0.0,0.0,100,0.00,n/a,n/a,-99.99,Henriksen +1-Wire,2013-10-31 07:00:00,
2013-10-31 03:10:00,29.6,29.6,-100.00,West,269,0.0,0.0,100,0.00,n/a,n/a,-99.99,Henriksen +1-Wire,2013-10-31 07:10:00,
2013-10-31 03:20:00,29.6,29.6,-100.00,West,269,0.0,0.0,100,0.00,n/a,n/a,-99.99,Henriksen +1-Wire,2013-10-31 07:20:00,
2013-10-31 03:30:00,29.6,29.6,-100.00,West,269,0.0,0.0,100,0.00,n/a,n/a,-99.99,Henriksen +1-Wire,2013-10-31 07:30:00,
2013-10-31 03:40:00,29.4,29.4,-100.00,West,269,0.0,0.0,100,0.00,n/a,n/a,-99.99,Henriksen +1-Wire,2013-10-31 07:40:00,
2013-10-31 03:50:00,29.4,29.4,-100.00,West,269,0.0,0.0,100,0.00,n/a,n/a,-99.99,Henriksen +1-Wire,2013-10-31 07:50:00,
2013-10-31 04:00:00,29.4,29.4,-100.00,West,269,0.0,0.0,100,0.00,n/a,n/a,-99.99,Henriksen +1-Wire,2013-10-31 08:00:00,
2013-10-31 04:10:00,29.5,29.5,-100.00,West,269,0.0,0.0,100,0.00,n/a,n/a,-99.99,Henriksen +1-Wire,2013-10-31 08:10:00,
2013-10-31 04:20:00,29.4,29.4,-100.00,West,269,0.0,0.0,100,0.00,n/a,n/a,-99.99,Henriksen +1-Wire,2013-10-31 08:20:00,
2013-10-31 04:30:00,29.4,29.4,-100.00,West,269,0.0,0.0,100,0.00,n/a,n/a,-99.99,Henriksen +1-Wire,2013-10-31 08:30:00,
2013-10-31 04:40:00,29.2,29.2,-100.00,West,269,0.0,0.0,100,0.00,n/a,n/a,-99.99,Henriksen +1-Wire,2013-10-31 08:40:00,
2013-10-31 04:50:00,29.0,29.0,-100.00,West,269,0.0,0.0,100,0.00,n/a,n/a,-99.99,Henriksen +1-Wire,2013-10-31 08:50:00,
2013-10-31 05:00:00,28.9,28.9,-100.00,West,269,0.0,0.0,100,0.00,n/a,n/a,-99.99,Henriksen +1-Wire,2013-10-31 09:00:00,
2013-10-31 05:10:00,29.2,29.2,-100.00,West,269,0.0,0.0,100,0.00,n/a,n/a,-99.99,Henriksen +1-Wire,2013-10-31 09:10:00,
2013-10-31 05:20:00,29.0,29.0,-100.00,West,269,0.0,0.0,100,0.00,n/a,n/a,-99.99,Henriksen +1-Wire,2013-10-31 09:20:00,
2013-10-31 05:30:00,29.0,29.0,-100.00,West,269,0.0,0.0,100,0.00,n/a,n/a,-99.99,Henriksen +1-Wire,2013-10-31 09:30:00,
2013-10-31 05:40:00,28.9,28.9,-100.00,West,269,0.0,0.0,100,0.00,n/a,n/a,-99.99,Henriksen +1-Wire,2013-10-31 09:40:00,
2013-10-31 05:50:00,28.9,28.9,-100.00,West,269,0.0,0.0,100,0.00,n/a,n/a,-99.99,Henriksen +1-Wire,2013-10-31 09:50:00,
2013-10-31 06:00:00,28.7,28.7,-100.00,West,269,0.0,0.0,100,0.00,n/a,n/a,-99.99,Henriksen +1-Wire,2013-10-31 10:00:00,
2013-10-31 06:10:00,28.8,28.8,-100.00,West,269,0.0,0.0,100,0.00,n/a,n/a,-99.99,Henriksen +1-Wire,2013-10-31 10:10:00,
2013-10-31 06:20:00,28.8,28.8,-100.00,West,269,0.0,0.0,100,0.00,n/a,n/a,-99.99,Henriksen +1-Wire,2013-10-31 10:20:00,
2013-10-31 06:30:00,29.0,29.0,-100.00,West,269,0.0,0.0,100,0.00,n/a,n/a,-99.99,Henriksen +1-Wire,2013-10-31 10:30:00,
2013-10-31 06:40:00,29.0,29.0,-100.00,West,269,0.0,0.0,100,0.00,n/a,n/a,-99.99,Henriksen +1-Wire,2013-10-31 10:40:00,
2013-10-31 06:50:00,28.9,28.9,-100.00,West,269,0.0,0.0,100,0.00,n/a,n/a,-99.99,Henriksen +1-Wire,2013-10-31 10:50:00,
2013-10-31 07:00:00,29.0,29.0,-100.00,West,269,0.0,0.0,100,0.00,n/a,n/a,-99.99,Henriksen +1-Wire,2013-10-31 11:00:00,
2013-10-31 07:10:00,29.0,29.0,-100.00,West,269,0.0,0.0,100,0.00,n/a,n/a,-99.99,Henriksen +1-Wire,2013-10-31 11:10:00,
2013-10-31 07:20:00,29.2,29.2,-100.00,West,269,0.0,0.0,100,0.00,n/a,n/a,-99.99,Henriksen +1-Wire,2013-10-31 11:20:00,
2013-10-31 07:30:00,29.2,29.2,-100.00,West,269,0.0,0.0,100,0.00,n/a,n/a,-99.99,Henriksen +1-Wire,2013-10-31 11:30:00,
2013-10-31 07:40:00,29.6,29.6,-100.00,West,269,0.0,0.0,100,0.00,n/a,n/a,-99.99,Henriksen +1-Wire,2013-10-31 11:40:00,
2013-10-31 07:50:00,29.9,29.9,-100.00,West,269,0.0,0.0,100,0.00,n/a,n/a,-99.99,Henriksen +1-Wire,2013-10-31 11:50:00,
2013-10-31 08:00:00,29.9,29.9,-100.00,West,269,0.0,0.0,100,0.00,n/a,n/a,-99.99,Henriksen +1-Wire,2013-10-31 12:00:00,
2013-10-31 08:10:00,30.4,30.4,-100.00,West,269,0.0,0.0,100,0.00,n/a,n/a,-99.99,Henriksen +1-Wire,2013-10-31 12:10:00,
2013-10-31 08:20:00,31.0,31.0,-100.00,West,269,0.0,0.0,100,0.00,n/a,n/a,-99.99,Henriksen +1-Wire,2013-10-31 12:20:00,
2013-10-31 08:30:00,31.6,31.6,-100.00,West,269,0.0,0.0,100,0.00,n/a,n/a,-99.99,Henriksen +1-Wire,2013-10-31 12:30:00,
2013-10-31 08:40:00,32.3,32.3,-100.00,West,269,0.0,0.0,100,0.00,n/a,n/a,-99.99,Henriksen +1-Wire,2013-10-31 12:40:00,
2013-10-31 08:50:00,32.6,32.6,-100.00,West,269,0.0,0.0,100,0.00,n/a,n/a,-99.99,Henriksen +1-Wire,2013-10-31 12:50:00,
2013-10-31 09:00:00,33.3,33.3,-100.00,West,269,0.0,0.0,100,0.00,n/a,n/a,-99.99,Henriksen +1-Wire,2013-10-31 13:00:00,
2013-10-31 09:10:00,34.1,34.1,-100.00,West,269,0.0,0.0,100,0.00,n/a,n/a,-99.99,Henriksen +1-Wire,2013-10-31 13:10:00,
2013-10-31 09:20:00,34.3,34.3,-100.00,West,268,0.0,0.0,100,0.00,n/a,n/a,-99.99,Henriksen +1-Wire,2013-10-31 13:20:00,
2013-10-31 09:30:00,34.9,34.9,-100.00,West,269,0.0,0.0,100,0.00,n/a,n/a,-99.99,Henriksen +1-Wire,2013-10-31 13:30:00,
2013-10-31 09:40:00,35.3,35.3,-100.00,West,269,0.0,0.0,100,0.00,n/a,n/a,-99.99,Henriksen +1-Wire,2013-10-31 13:40:00,
2013-10-31 09:50:00,35.8,35.8,-100.00,West,269,0.0,0.0,100,0.00,n/a,n/a,-99.99,Henriksen +1-Wire,2013-10-31 13:50:00,
2013-10-31 10:00:00,36.2,36.2,-100.00,West,269,0.0,0.0,100,0.00,n/a,n/a,-99.99,Henriksen +1-Wire,2013-10-31 14:00:00,
2013-10-31 10:10:00,36.6,36.6,-100.00,West,269,0.0,0.0,100,0.00,n/a,n/a,-99.99,Henriksen +1-Wire,2013-10-31 14:10:00,
2013-10-31 10:20:00,37.4,37.4,-100.00,West,269,0.0,0.0,100,0.00,n/a,n/a,-99.99,Henriksen +1-Wire,2013-10-31 14:20:00,
2013-10-31 10:30:00,38.0,38.0,-100.00,West,269,0.0,0.0,100,0.00,n/a,n/a,-99.99,Henriksen +1-Wire,2013-10-31 14:30:00,
2013-10-31 10:40:00,38.7,38.7,-100.00,West,269,0.0,0.0,100,0.00,n/a,n/a,-99.99,Henriksen +1-Wire,2013-10-31 14:40:00,
2013-10-31 10:50:00,39.8,39.8,-100.00,West,269,0.0,0.0,100,0.00,n/a,n/a,-99.99,Henriksen +1-Wire,2013-10-31 14:50:00,
2013-10-31 11:00:00,40.3,40.1,-100.00,West,269,0.0,0.0,99,0.00,n/a,n/a,-99.99,Henriksen +1-Wire,2013-10-31 15:00:00,
2013-10-31 11:10:00,41.1,40.7,-100.00,West,269,0.0,0.0,98,0.00,n/a,n/a,-99.99,Henriksen +1-Wire,2013-10-31 15:10:00,
2013-10-31 11:20:00,41.8,41.1,-100.00,West,269,0.0,0.0,97,0.00,n/a,n/a,-99.99,Henriksen +1-Wire,2013-10-31 15:20:00,
2013-10-31 11:30:00,42.1,41.5,-100.00,West,269,0.0,0.0,97,0.00,n/a,n/a,-99.99,Henriksen +1-Wire,2013-10-31 15:30:00,
2013-10-31 11:40:00,42.4,42.1,-100.00,West,269,0.0,0.0,98,0.00,n/a,n/a,-99.99,Henriksen +1-Wire,2013-10-31 15:40:00,
2013-10-31 11:50:00,43.0,42.6,-100.00,SW,229,0.0,0.0,98,0.00,n/a,n/a,-99.99,Henriksen +1-Wire,2013-10-31 15:50:00,
2013-10-31 12:00:00,43.2,43.0,-100.00,SSW,201,0.0,0.0,99,0.00,n/a,n/a,-99.99,Henriksen +1-Wire,2013-10-31 16:00:00,
2013-10-31 12:10:00,43.1,43.0,-100.00,SSW,201,0.0,0.0,99,0.00,n/a,n/a,-99.99,Henriksen +1-Wire,2013-10-31 16:10:00,
2013-10-31 12:20:00,43.4,43.3,-100.00,SSW,195,1.1,4.0,99,0.00,n/a,n/a,-99.99,Henriksen +1-Wire,2013-10-31 16:20:00,
2013-10-31 12:30:00,44.1,43.7,-100.00,East,93,0.0,3.2,98,0.00,n/a,n/a,-99.99,Henriksen +1-Wire,2013-10-31 16:30:00,
2013-10-31 12:40:00,44.2,43.5,-100.00,East,89,0.0,0.0,97,0.00,n/a,n/a,-99.99,Henriksen +1-Wire,2013-10-31 16:40:00,
2013-10-31 12:50:00,44.1,43.4,-100.00,East,89,0.0,0.0,97,0.00,n/a,n/a,-99.99,Henriksen +1-Wire,2013-10-31 16:50:00,
2013-10-31 13:00:00,44.2,43.7,-100.00,East,89,0.0,0.8,98,0.00,n/a,n/a,-99.99,Henriksen +1-Wire,2013-10-31 17:00:00,
2013-10-31 13:10:00,44.3,44.1,-100.00,East,89,0.0,0.0,99,0.00,n/a,n/a,-99.99,Henriksen +1-Wire,2013-10-31 17:10:00,
2013-10-31 13:20:00,44.3,44.3,-100.00,East,89,0.0,0.0,99,0.00,n/a,n/a,-99.99,Henriksen +1-Wire,2013-10-31 17:20:00,
2013-10-31 13:30:00,44.8,44.7,-100.00,East,89,0.0,0.0,99,0.00,n/a,n/a,-99.99,Henriksen +1-Wire,2013-10-31 17:30:00,
2013-10-31 13:40:00,45.2,45.1,-100.00,East,89,0.0,0.0,99,0.00,n/a,n/a,-99.99,Henriksen +1-Wire,2013-10-31 17:40:00,
2013-10-31 13:50:00,45.5,45.3,-100.00,East,89,0.0,0.0,99,0.00,n/a,n/a,-99.99,Henriksen +1-Wire,2013-10-31 17:50:00,
2013-10-31 14:00:00,45.9,45.8,-100.00,East,89,0.0,0.0,99,0.00,n/a,n/a,-99.99,Henriksen +1-Wire,2013-10-31 18:00:00,
2013-10-31 14:10:00,46.1,45.9,-100.00,East,89,0.0,0.0,99,0.00,n/a,n/a,-99.99,Henriksen +1-Wire,2013-10-31 18:10:00,
2013-10-31 14:20:00,46.4,46.3,-100.00,East,89,0.0,0.0,99,0.00,n/a,n/a,-99.99,Henriksen +1-Wire,2013-10-31 18:20:00,
2013-10-31 14:30:00,46.5,46.1,-100.00,East,89,0.0,0.0,98,0.00,n/a,n/a,-99.99,Henriksen +1-Wire,2013-10-31 18:30:00,
2013-10-31 14:40:00,46.6,46.1,-100.00,East,89,0.0,0.0,98,0.00,n/a,n/a,-99.99,Henriksen +1-Wire,2013-10-31 18:40:00,
2013-10-31 14:50:00,46.7,46.1,-100.00,East,89,0.0,0.0,97,0.00,n/a,n/a,-99.99,Henriksen +1-Wire,2013-10-31 18:50:00,
2013-10-31 15:00:00,46.5,45.9,-100.00,East,89,0.0,0.0,97,0.00,n/a,n/a,-99.99,Henriksen +1-Wire,2013-10-31 19:00:00,
2013-10-31 15:10:00,46.3,45.6,-100.00,East,89,0.0,0.0,97,0.00,n/a,n/a,-99.99,Henriksen +1-Wire,2013-10-31 19:10:00,
2013-10-31 15:20:00,46.3,45.5,-100.00,East,89,0.0,0.0,97,0.00,n/a,n/a,-99.99,Henriksen +1-Wire,2013-10-31 19:20:00,
2013-10-31 15:30:00,46.2,45.5,-100.00,East,89,0.0,0.0,97,0.00,n/a,n/a,-99.99,Henriksen +1-Wire,2013-10-31 19:30:00,
2013-10-31 15:40:00,46.4,45.7,-100.00,East,89,0.0,0.0,97,0.00,n/a,n/a,-99.99,Henriksen +1-Wire,2013-10-31 19:40:00,
2013-10-31 15:50:00,46.1,45.8,-100.00,East,89,0.0,0.0,98,0.01,n/a,n/a,-99.99,Henriksen +1-Wire,2013-10-31 19:50:00,
2013-10-31 16:00:00,45.9,45.8,-100.00,East,89,0.0,0.0,99,0.02,n/a,n/a,-99.99,Henriksen +1-Wire,2013-10-31 20:00:00,
2013-10-31 16:10:00,45.7,45.6,-100.00,East,89,0.0,0.0,99,0.03,n/a,n/a,-99.99,Henriksen +1-Wire,2013-10-31 20:10:00,
2013-10-31 16:20:00,45.6,45.6,-100.00,East,89,0.0,0.0,99,0.03,n/a,n/a,-99.99,Henriksen +1-Wire,2013-10-31 20:20:00,
2013-10-31 16:30:00,45.6,45.6,-100.00,East,89,0.0,0.0,100,0.03,n/a,n/a,-99.99,Henriksen +1-Wire,2013-10-31 20:30:00,
2013-10-31 16:40:00,45.8,45.8,-100.00,East,89,0.0,0.0,100,0.04,n/a,n/a,-99.99,Henriksen +1-Wire,2013-10-31 20:40:00,
2013-10-31 16:50:00,45.7,45.7,-100.00,East,89,0.0,0.0,100,0.03,n/a,n/a,-99.99,Henriksen +1-Wire,2013-10-31 20:50:00,
2013-10-31 17:00:00,45.6,45.6,-100.00,East,89,0.0,0.0,100,0.02,n/a,n/a,-99.99,Henriksen +1-Wire,2013-10-31 21:00:00,
2013-10-31 17:10:00,45.6,45.6,-100.00,East,89,0.0,0.0,100,0.02,n/a,n/a,-99.99,Henriksen +1-Wire,2013-10-31 21:10:00,
2013-10-31 17:20:00,45.5,45.5,-100.00,East,89,0.0,0.0,100,0.02,n/a,n/a,-99.99,Henriksen +1-Wire,2013-10-31 21:20:00,
2013-10-31 17:30:00,45.8,45.8,-100.00,East,89,0.0,0.0,100,0.03,n/a,n/a,-99.99,Henriksen +1-Wire,2013-10-31 21:30:00,
2013-10-31 17:40:00,45.7,45.7,-100.00,East,89,0.0,0.0,100,0.02,n/a,n/a,-99.99,Henriksen +1-Wire,2013-10-31 21:40:00,
2013-10-31 17:50:00,45.6,45.6,-100.00,East,89,0.0,0.0,100,0.02,n/a,n/a,-99.99,Henriksen +1-Wire,2013-10-31 21:50:00,
2013-10-31 18:00:00,45.6,45.6,-100.00,East,89,0.0,0.0,100,0.02,n/a,n/a,-99.99,Henriksen +1-Wire,2013-10-31 22:00:00,
2013-10-31 18:10:00,45.6,45.6,-100.00,East,89,0.0,0.0,100,0.01,n/a,n/a,-99.99,Henriksen +1-Wire,2013-10-31 22:10:00,
2013-10-31 18:20:00,45.7,45.7,-100.00,East,89,0.0,0.0,100,0.01,n/a,n/a,-99.99,Henriksen +1-Wire,2013-10-31 22:20:00,
2013-10-31 18:30:00,45.7,45.7,-100.00,East,89,0.0,0.0,100,0.01,n/a,n/a,-99.99,Henriksen +1-Wire,2013-10-31 22:30:00,
2013-10-31 18:40:00,45.7,45.7,-100.00,East,89,0.0,0.0,100,0.02,n/a,n/a,-99.99,Henriksen +1-Wire,2013-10-31 22:40:00,
2013-10-31 18:50:00,45.7,45.7,-100.00,East,89,0.0,0.0,100,0.04,n/a,n/a,-99.99,Henriksen +1-Wire,2013-10-31 22:50:00,
2013-10-31 19:00:00,45.6,45.6,-100.00,East,89,0.0,0.0,100,0.04,n/a,n/a,-99.99,Henriksen +1-Wire,2013-10-31 23:00:00,
2013-10-31 19:10:00,45.7,45.7,-100.00,East,89,0.0,0.0,100,0.04,n/a,n/a,-99.99,Henriksen +1-Wire,2013-10-31 23:10:00,
2013-10-31 19:20:00,45.8,45.8,-100.00,East,89,0.0,0.0,100,0.04,n/a,n/a,-99.99,Henriksen +1-Wire,2013-10-31 23:20:00,
2013-10-31 19:30:00,45.8,45.8,-100.00,East,89,0.0,0.0,100,0.04,n/a,n/a,-99.99,Henriksen +1-Wire,2013-10-31 23:30:00,
2013-10-31 19:40:00,46.1,46.1,-100.00,East,89,0.0,0.0,100,0.03,n/a,n/a,-99.99,Henriksen +1-Wire,2013-10-31 23:40:00,
2013-10-31 19:50:00,46.2,46.2,-100.00,East,89,0.0,0.0,100,0.01,n/a,n/a,-99.99,Henriksen +1-Wire,2013-10-31 23:50:00,
2013-10-31 20:00:00,46.9,46.9,-100.00,East,89,0.0,0.0,100,0.01,n/a,n/a,-99.99,Henriksen +1-Wire,2013-11-01 00:00:00,
2013-10-31 20:10:00,47.6,47.6,-100.00,ESE,121,0.0,0.0,100,0.01,n/a,n/a,-99.99,Henriksen +1-Wire,2013-11-01 00:10:00,
2013-10-31 20:20:00,48.4,48.4,-100.00,North,355,0.0,0.8,100,0.00,n/a,n/a,-99.99,Henriksen +1-Wire,2013-11-01 00:20:00,
2013-10-31 20:30:00,50.1,50.1,-100.00,NE,34,0.3,4.0,100,0.00,n/a,n/a,-99.99,Henriksen +1-Wire,2013-11-01 00:30:00,
2013-10-31 20:40:00,53.9,53.9,-100.00,WSW,250,0.1,3.2,100,0.00,n/a,n/a,-99.99,Henriksen +1-Wire,2013-11-01 00:40:00,
2013-10-31 20:50:00,55.1,55.1,-100.00,West,277,1.5,7.2,100,0.00,n/a,n/a,-99.99,Henriksen +1-Wire,2013-11-01 00:50:00,
2013-10-31 21:00:00,55.5,55.5,-100.00,SSW,209,0.2,2.4,100,0.00,n/a,n/a,-99.99,Henriksen +1-Wire,2013-11-01 01:00:00,
2013-10-31 21:10:00,55.9,55.9,-100.00,WSW,249,0.0,5.6,100,0.00,n/a,n/a,-99.99,Henriksen +1-Wire,2013-11-01 01:10:00,
2013-10-31 21:20:00,56.1,56.1,-100.00,WSW,248,0.4,3.2,100,0.00,n/a,n/a,-99.99,Henriksen +1-Wire,2013-11-01 01:20:00,
2013-10-31 21:30:00,55.9,55.9,-100.00,WSW,257,0.0,1.6,100,0.01,n/a,n/a,-99.99,Henriksen +1-Wire,2013-11-01 01:30:00,
2013-10-31 21:40:00,55.9,55.9,-100.00,WNW,292,0.2,2.4,100,0.01,n/a,n/a,-99.99,Henriksen +1-Wire,2013-11-01 01:40:00,
2013-10-31 21:50:00,56.6,56.6,-100.00,WSW,246,0.1,5.6,100,0.01,n/a,n/a,-99.99,Henriksen +1-Wire,2013-11-01 01:50:00,
2013-10-31 22:00:00,56.1,56.1,-100.00,East,92,0.0,3.2,100,0.01,n/a,n/a,-99.99,Henriksen +1-Wire,2013-11-01 02:00:00,
2013-10-31 22:10:00,56.2,56.2,-100.00,ESE,115,0.2,2.4,100,0.01,n/a,n/a,-99.99,Henriksen +1-Wire,2013-11-01 02:10:00,
2013-10-31 22:20:00,56.4,56.4,-100.00,West,276,0.1,6.4,100,0.01,n/a,n/a,-99.99,Henriksen +1-Wire,2013-11-01 02:20:00,
2013-10-31 22:30:00,56.5,56.5,-100.00,WSW,255,0.3,5.6,100,0.00,n/a,n/a,-99.99,Henriksen +1-Wire,2013-11-01 02:30:00,
2013-10-31 22:40:00,56.4,56.4,-100.00,WNW,299,0.3,6.4,100,0.00,n/a,n/a,-99.99,Henriksen +1-Wire,2013-11-01 02:40:00,
2013-10-31 22:50:00,57.0,57.0,-100.00,West,266,0.1,7.2,100,0.00,n/a,n/a,-99.99,Henriksen +1-Wire,2013-11-01 02:50:00,
2013-10-31 23:00:00,56.9,56.9,-100.00,WSW,255,0.9,10.5,100,0.01,n/a,n/a,-99.99,Henriksen +1-Wire,2013-11-01 03:00:00,
2013-10-31 23:10:00,57.0,57.0,-100.00,ESE,118,0.5,6.4,100,0.01,n/a,n/a,-99.99,Henriksen +1-Wire,2013-11-01 03:10:00,
2013-10-31 23:20:00,56.8,56.8,-100.00,West,269,0.9,6.4,100,0.01,n/a,n/a,-99.99,Henriksen +1-Wire,2013-11-01 03:20:00,
2013-10-31 23:30:00,56.8,56.8,-100.00,West,259,0.8,6.3,100,0.01,n/a,n/a,-99.99,Henriksen +1-Wire,2013-11-01 03:30:00,
2013-10-31 23:40:00,56.6,56.6,-100.00,WSW,253,0.6,6.4,100,0.01,n/a,n/a,-99.99,Henriksen +1-Wire,2013-11-01 03:40:00,
2013-10-31 23:50:00,56.4,56.4,-100.00,ESE,113,0.2,4.1,100,0.01,n/a,n/a,-99.99,Henriksen +1-Wire,2013-11-01 03:50:00,